Rangeley, ME (04970)

1:43 PM EST on December 09, 2016 (GMT -0500)
Toothaker Pond | | Change Station

Elev 820 ft 44.87 °N, 70.40 °W | Updated 5 seconds ago

Overcast
Overcast
24.6 °F
Feels Like 15 °F
N
9.0
Wind Variable Wind from West

Today
High -- | Low -- °F
--% Chance of Precip.
Yesterday
High -- | Low -- °F
Precip. -- in
Pressure 29.87 in
Visibility 3.0 miles
Clouds Overcast 3200 ft
Windchill 15 °F
Dew Point 12 °F
Humidity 59%
Rainfall 0.00 in
Snow Depth Not available.
7:09 AM 4:00 PM
Waxing Gibbous, 76% visible
SPECI KBML 091832Z AUTO 29010G16KT 3SM -SN OVC032 M04/M12 A2987 RMK AO2 SNB1753 P0000 T10441117
Pressure 29.87 in
Visibility 3.0 miles
Clouds Overcast 3200 ft
Windchill 15 °F
Dew Point 12 °F
Humidity 59%
Rainfall 0.00 in
Snow Depth Not available.
7:09 AM 4:00 PM
Waxing Gibbous, 76% visible
SPECI KBML 091832Z AUTO 29010G16KT 3SM -SN OVC032 M04/M12 A2987 RMK AO2 SNB1753 P0000 T10441117

10-Day Weather Forecast

Almanac

Astronomy

Dec. 09, 2016 Rise Set
Actual Time
Civil Twilight
Nautical Twilight
Astronomical Twilight
Moon
Length of Visible Light
Length of Day
Tomorrow will be .
, % of the Moon is Illuminated

Today's Extremes

State Highs State Lows

Community

WunderPhotos

Upload Photos

1,956,499 photos uploaded!

WunderBlog® & News

Nearby

Air Quality

  Air Quality AQ Index Pollutant
Not available.

Snow Depth

Station Depth Elevation

Earthquake Activity

City Distance Mag. Time & Date
Minimum magnitude displayed is 2.5.

Coastal Water Temperatures

Place Temperature

Stations

Nearby Weather Stations

Station Location Temp. Windchill Dew Point Humidity Wind Precip. Elev Updated Type
                   

Watches & Warnings

There are currently no watches in effect.